sensor_id;sensor_type;location;lat;lon;timestamp;temperature;humidity
7167;DHT22;3625;51.762;14.320;2022-10-16T00:04:13;13.90;99.90
7167;DHT22;3625;51.762;14.320;2022-10-16T00:09:11;13.70;99.90
7167;DHT22;3625;51.762;14.320;2022-10-16T00:11:40;13.70;99.90
7167;DHT22;3625;51.762;14.320;2022-10-16T00:14:11;13.70;99.90
7167;DHT22;3625;51.762;14.320;2022-10-16T00:16:41;13.60;99.90
7167;DHT22;3625;51.762;14.320;2022-10-16T00:19:10;13.60;99.90
7167;DHT22;3625;51.762;14.320;2022-10-16T00:21:39;13.60;99.90
7167;DHT22;3625;51.762;14.320;2022-10-16T00:24:09;13.50;99.90
7167;DHT22;3625;51.762;14.320;2022-10-16T00:26:39;13.50;99.90
7167;DHT22;3625;51.762;14.320;2022-10-16T00:41:33;13.40;99.90
7167;DHT22;3625;51.762;14.320;2022-10-16T00:44:04;13.50;99.90
7167;DHT22;3625;51.762;14.320;2022-10-16T00:47:14;13.60;99.90
7167;DHT22;3625;51.762;14.320;2022-10-16T00:49:47;13.60;99.90
7167;DHT22;3625;51.762;14.320;2022-10-16T00:54:47;13.50;99.90
7167;DHT22;3625;51.762;14.320;2022-10-16T00:59:48;13.40;99.90
7167;DHT22;3625;51.762;14.320;2022-10-16T01:02:17;13.30;99.90
7167;DHT22;3625;51.762;14.320;2022-10-16T01:04:48;13.30;99.90
7167;DHT22;3625;51.762;14.320;2022-10-16T01:07:39;13.20;99.90
7167;DHT22;3625;51.762;14.320;2022-10-16T01:10:20;13.20;99.90
7167;DHT22;3625;51.762;14.320;2022-10-16T01:13:01;13.20;99.90
7167;DHT22;3625;51.762;14.320;2022-10-16T01:15:36;13.10;99.90
7167;DHT22;3625;51.762;14.320;2022-10-16T01:18:13;13.10;99.90
7167;DHT22;3625;51.762;14.320;2022-10-16T01:20:50;13.00;99.90
7167;DHT22;3625;51.762;14.320;2022-10-16T01:23:31;13.00;99.90
7167;DHT22;3625;51.762;14.320;2022-10-16T01:28:55;12.90;99.90
7167;DHT22;3625;51.762;14.320;2022-10-16T01:31:31;12.80;99.90
7167;DHT22;3625;51.762;14.320;2022-10-16T01:34:05;12.80;99.90
7167;DHT22;3625;51.762;14.320;2022-10-16T01:36:40;12.70;99.90
7167;DHT22;3625;51.762;14.320;2022-10-16T01:39:13;12.80;99.90
7167;DHT22;3625;51.762;14.320;2022-10-16T01:44:20;12.80;99.90
7167;DHT22;3625;51.762;14.320;2022-10-16T01:46:54;12.80;99.90
7167;DHT22;3625;51.762;14.320;2022-10-16T01:51:59;12.80;99.90
7167;DHT22;3625;51.762;14.320;2022-10-16T01:54:35;12.80;99.90
7167;DHT22;3625;51.762;14.320;2022-10-16T02:04:44;12.80;99.90
7167;DHT22;3625;51.762;14.320;2022-10-16T02:12:15;12.80;99.90
7167;DHT22;3625;51.762;14.320;2022-10-16T02:14:52;12.90;99.90
7167;DHT22;3625;51.762;14.320;2022-10-16T02:17:21;13.00;99.90
7167;DHT22;3625;51.762;14.320;2022-10-16T02:19:51;13.00;99.90
7167;DHT22;3625;51.762;14.320;2022-10-16T02:22:26;13.10;99.90
7167;DHT22;3625;51.762;14.320;2022-10-16T02:24:58;13.20;99.90
7167;DHT22;3625;51.762;14.320;2022-10-16T02:27:34;13.20;99.90
7167;DHT22;3625;51.762;14.320;2022-10-16T02:30:11;13.20;99.90
7167;DHT22;3625;51.762;14.320;2022-10-16T02:32:48;13.40;99.90
7167;DHT22;3625;51.762;14.320;2022-10-16T02:35:19;13.50;99.90
7167;DHT22;3625;51.762;14.320;2022-10-16T02:40:20;13.70;99.90
7167;DHT22;3625;51.762;14.320;2022-10-16T02:42:52;13.90;99.90
7167;DHT22;3625;51.762;14.320;2022-10-16T02:45:23;13.90;99.90
7167;DHT22;3625;51.762;14.320;2022-10-16T02:47:52;14.10;99.90
7167;DHT22;3625;51.762;14.320;2022-10-16T02:50:21;14.10;99.90
7167;DHT22;3625;51.762;14.320;2022-10-16T03:00:17;14.30;99.90
7167;DHT22;3625;51.762;14.320;2022-10-16T03:02:48;14.30;99.90
7167;DHT22;3625;51.762;14.320;2022-10-16T03:05:16;14.30;99.90
7167;DHT22;3625;51.762;14.320;2022-10-16T03:07:45;14.30;99.90
7167;DHT22;3625;51.762;14.320;2022-10-16T03:10:13;14.30;99.90
7167;DHT22;3625;51.762;14.320;2022-10-16T03:20:09;14.30;99.90
7167;DHT22;3625;51.762;14.320;2022-10-16T03:25:07;14.20;99.90
7167;DHT22;3625;51.762;14.320;2022-10-16T03:30:05;14.20;99.90
7167;DHT22;3625;51.762;14.320;2022-10-16T03:37:33;14.20;99.90
7167;DHT22;3625;51.762;14.320;2022-10-16T03:40:02;14.30;99.90
7167;DHT22;3625;51.762;14.320;2022-10-16T03:42:31;14.30;99.90
7167;DHT22;3625;51.762;14.320;2022-10-16T03:59:56;14.80;99.90
7167;DHT22;3625;51.762;14.320;2022-10-16T04:04:53;14.60;99.90
7167;DHT22;3625;51.762;14.320;2022-10-16T04:27:14;14.70;99.90
7167;DHT22;3625;51.762;14.320;2022-10-16T04:32:13;14.60;99.90
7167;DHT22;3625;51.762;14.320;2022-10-16T04:34:41;14.60;99.90
7167;DHT22;3625;51.762;14.320;2022-10-16T04:39:39;14.40;99.90
7167;DHT22;3625;51.762;14.320;2022-10-16T04:42:08;14.30;99.90
7167;DHT22;3625;51.762;14.320;2022-10-16T04:54:32;14.20;99.90
7167;DHT22;3625;51.762;14.320;2022-10-16T04:59:31;14.30;99.90
7167;DHT22;3625;51.762;14.320;2022-10-16T05:06:59;14.30;99.90
7167;DHT22;3625;51.762;14.320;2022-10-16T05:34:20;14.30;99.90
7167;DHT22;3625;51.762;14.320;2022-10-16T05:39:19;14.30;99.90
7167;DHT22;3625;51.762;14.320;2022-10-16T05:41:49;14.30;99.90
7167;DHT22;3625;51.762;14.320;2022-10-16T05:49:16;14.30;99.90
7167;DHT22;3625;51.762;14.320;2022-10-16T05:51:44;14.40;99.90
7167;DHT22;3625;51.762;14.320;2022-10-16T05:56:43;14.60;99.90
7167;DHT22;3625;51.762;14.320;2022-10-16T05:59:11;14.80;99.90
7167;DHT22;3625;51.762;14.320;2022-10-16T06:01:39;14.80;99.90
7167;DHT22;3625;51.762;14.320;2022-10-16T06:11:39;14.80;99.90
7167;DHT22;3625;51.762;14.320;2022-10-16T06:14:09;14.80;99.90
7167;DHT22;3625;51.762;14.320;2022-10-16T06:29:02;15.10;99.90
7167;DHT22;3625;51.762;14.320;2022-10-16T06:31:32;15.00;99.90
7167;DHT22;3625;51.762;14.320;2022-10-16T06:34:00;14.90;99.90
7167;DHT22;3625;51.762;14.320;2022-10-16T06:36:31;14.80;99.90
7167;DHT22;3625;51.762;14.320;2022-10-16T06:38:59;14.70;99.90
7167;DHT22;3625;51.762;14.320;2022-10-16T06:44:05;14.70;99.90
7167;DHT22;3625;51.762;14.320;2022-10-16T06:49:04;14.60;99.90
7167;DHT22;3625;51.762;14.320;2022-10-16T07:01:36;15.30;99.90
7167;DHT22;3625;51.762;14.320;2022-10-16T07:06:34;15.70;99.90
7167;DHT22;3625;51.762;14.320;2022-10-16T07:09:05;15.70;99.90
7167;DHT22;3625;51.762;14.320;2022-10-16T07:11:36;15.80;99.90
7167;DHT22;3625;51.762;14.320;2022-10-16T07:14:14;15.70;99.90
7167;DHT22;3625;51.762;14.320;2022-10-16T07:19:15;15.80;99.90
7167;DHT22;3625;51.762;14.320;2022-10-16T07:24:14;15.90;99.90
7167;DHT22;3625;51.762;14.320;2022-10-16T07:26:45;15.90;99.90
7167;DHT22;3625;51.762;14.320;2022-10-16T07:29:15;16.00;99.90
7167;DHT22;3625;51.762;14.320;2022-10-16T07:34:16;16.30;99.90
7167;DHT22;3625;51.762;14.320;2022-10-16T07:44:16;16.70;99.90
7167;DHT22;3625;51.762;14.320;2022-10-16T07:46:46;16.70;99.90
7167;DHT22;3625;51.762;14.320;2022-10-16T08:21:42;18.20;99.90
7167;DHT22;3625;51.762;14.320;2022-10-16T08:39:05;18.60;99.90
7167;DHT22;3625;51.762;14.320;2022-10-16T08:45:19;18.60;99.90
7167;DHT22;3625;51.762;14.320;2022-10-16T08:48:04;19.00;99.90
7167;DHT22;3625;51.762;14.320;2022-10-16T08:50:48;19.50;99.90
7167;DHT22;3625;51.762;14.320;2022-10-16T08:53:23;19.90;99.90
7167;DHT22;3625;51.762;14.320;2022-10-16T08:58:28;20.00;99.90
7167;DHT22;3625;51.762;14.320;2022-10-16T09:01:00;19.70;99.90
7167;DHT22;3625;51.762;14.320;2022-10-16T09:03:41;19.50;99.90
7167;DHT22;3625;51.762;14.320;2022-10-16T09:06:38;18.90;99.90
7167;DHT22;3625;51.762;14.320;2022-10-16T09:09:41;19.10;99.90
7167;DHT22;3625;51.762;14.320;2022-10-16T09:12:27;18.60;99.90
7167;DHT22;3625;51.762;14.320;2022-10-16T09:15:14;19.50;99.90
7167;DHT22;3625;51.762;14.320;2022-10-16T09:17:59;20.00;99.90
7167;DHT22;3625;51.762;14.320;2022-10-16T09:20:39;20.40;99.90
7167;DHT22;3625;51.762;14.320;2022-10-16T09:23:19;20.60;99.90
7167;DHT22;3625;51.762;14.320;2022-10-16T09:25:53;20.90;99.90
7167;DHT22;3625;51.762;14.320;2022-10-16T09:28:24;21.20;99.90
7167;DHT22;3625;51.762;14.320;2022-10-16T09:33:24;21.60;99.90
7167;DHT22;3625;51.762;14.320;2022-10-16T09:35:57;21.50;99.90
7167;DHT22;3625;51.762;14.320;2022-10-16T09:38:29;21.10;99.90
7167;DHT22;3625;51.762;14.320;2022-10-16T09:41:00;21.10;99.90
7167;DHT22;3625;51.762;14.320;2022-10-16T09:43:34;21.10;99.90
7167;DHT22;3625;51.762;14.320;2022-10-16T09:46:09;21.20;99.90
7167;DHT22;3625;51.762;14.320;2022-10-16T09:48:51;21.20;99.90
7167;DHT22;3625;51.762;14.320;2022-10-16T09:51:24;22.10;99.90
7167;DHT22;3625;51.762;14.320;2022-10-16T09:53:58;22.40;99.90
7167;DHT22;3625;51.762;14.320;2022-10-16T09:56:29;22.90;99.90
7167;DHT22;3625;51.762;14.320;2022-10-16T09:59:02;23.30;99.90
7167;DHT22;3625;51.762;14.320;2022-10-16T10:01:40;23.10;99.90
7167;DHT22;3625;51.762;14.320;2022-10-16T10:04:11;23.00;99.90
7167;DHT22;3625;51.762;14.320;2022-10-16T10:06:43;22.80;99.90
7167;DHT22;3625;51.762;14.320;2022-10-16T10:09:20;22.70;99.90
7167;DHT22;3625;51.762;14.320;2022-10-16T10:11:53;22.20;99.90
7167;DHT22;3625;51.762;14.320;2022-10-16T10:14:25;22.00;99.90
7167;DHT22;3625;51.762;14.320;2022-10-16T10:17:15;21.50;99.90
7167;DHT22;3625;51.762;14.320;2022-10-16T10:19:52;21.20;99.90
7167;DHT22;3625;51.762;14.320;2022-10-16T10:22:24;20.90;99.90
7167;DHT22;3625;51.762;14.320;2022-10-16T10:25:13;20.60;99.90
7167;DHT22;3625;51.762;14.320;2022-10-16T10:28:28;20.50;99.90
7167;DHT22;3625;51.762;14.320;2022-10-16T10:31:16;20.60;99.90
7167;DHT22;3625;51.762;14.320;2022-10-16T10:33:54;20.90;99.90
7167;DHT22;3625;51.762;14.320;2022-10-16T10:36:33;21.10;99.90
7167;DHT22;3625;51.762;14.320;2022-10-16T10:39:06;21.30;99.90
7167;DHT22;3625;51.762;14.320;2022-10-16T10:42:08;21.40;99.90
7167;DHT22;3625;51.762;14.320;2022-10-16T10:45:02;21.60;99.90
7167;DHT22;3625;51.762;14.320;2022-10-16T10:47:51;22.10;99.90
7167;DHT22;3625;51.762;14.320;2022-10-16T10:50:41;22.60;99.90
7167;DHT22;3625;51.762;14.320;2022-10-16T10:53:21;22.90;99.90
7167;DHT22;3625;51.762;14.320;2022-10-16T10:56:08;22.80;99.90
7167;DHT22;3625;51.762;14.320;2022-10-16T10:59:02;22.90;99.90
7167;DHT22;3625;51.762;14.320;2022-10-16T11:01:52;23.10;99.90
7167;DHT22;3625;51.762;14.320;2022-10-16T11:07:54;22.50;99.90
7167;DHT22;3625;51.762;14.320;2022-10-16T11:10:30;22.20;99.90
7167;DHT22;3625;51.762;14.320;2022-10-16T11:13:10;22.30;99.90
7167;DHT22;3625;51.762;14.320;2022-10-16T11:15:51;22.50;99.90
7167;DHT22;3625;51.762;14.320;2022-10-16T11:18:29;22.50;99.90
7167;DHT22;3625;51.762;14.320;2022-10-16T11:21:11;22.40;99.90
7167;DHT22;3625;51.762;14.320;2022-10-16T11:23:46;22.30;99.90
7167;DHT22;3625;51.762;14.320;2022-10-16T11:26:21;22.10;99.90
7167;DHT22;3625;51.762;14.320;2022-10-16T11:28:55;22.30;99.90
7167;DHT22;3625;51.762;14.320;2022-10-16T11:31:32;22.80;99.90
7167;DHT22;3625;51.762;14.320;2022-10-16T11:34:09;23.40;99.90
7167;DHT22;3625;51.762;14.320;2022-10-16T11:36:49;23.80;99.90
7167;DHT22;3625;51.762;14.320;2022-10-16T11:39:24;24.10;99.90
7167;DHT22;3625;51.762;14.320;2022-10-16T11:41:59;23.70;99.90
7167;DHT22;3625;51.762;14.320;2022-10-16T11:44:48;23.60;99.90
7167;DHT22;3625;51.762;14.320;2022-10-16T11:47:31;22.90;99.90
7167;DHT22;3625;51.762;14.320;2022-10-16T11:50:26;22.50;99.90
7167;DHT22;3625;51.762;14.320;2022-10-16T11:53:04;22.50;99.90
7167;DHT22;3625;51.762;14.320;2022-10-16T11:55:45;22.70;99.90
7167;DHT22;3625;51.762;14.320;2022-10-16T11:58:21;22.90;99.90
7167;DHT22;3625;51.762;14.320;2022-10-16T12:00:59;23.10;99.90
7167;DHT22;3625;51.762;14.320;2022-10-16T12:03:42;23.00;99.90
7167;DHT22;3625;51.762;14.320;2022-10-16T12:06:25;22.90;99.90
7167;DHT22;3625;51.762;14.320;2022-10-16T12:11:36;23.00;99.90
7167;DHT22;3625;51.762;14.320;2022-10-16T12:14:21;23.00;99.90
7167;DHT22;3625;51.762;14.320;2022-10-16T12:17:26;22.90;99.90
7167;DHT22;3625;51.762;14.320;2022-10-16T12:20:20;22.80;99.90
7167;DHT22;3625;51.762;14.320;2022-10-16T12:22:54;23.60;99.90
7167;DHT22;3625;51.762;14.320;2022-10-16T12:25:26;22.50;99.90
7167;DHT22;3625;51.762;14.320;2022-10-16T12:28:02;22.40;99.90
7167;DHT22;3625;51.762;14.320;2022-10-16T12:30:35;22.30;99.90
7167;DHT22;3625;51.762;14.320;2022-10-16T12:33:06;22.10;99.90
7167;DHT22;3625;51.762;14.320;2022-10-16T12:38:21;22.00;99.90
7167;DHT22;3625;51.762;14.320;2022-10-16T12:41:00;22.00;99.90
7167;DHT22;3625;51.762;14.320;2022-10-16T12:43:39;21.90;99.90
7167;DHT22;3625;51.762;14.320;2022-10-16T12:46:23;21.90;99.90
7167;DHT22;3625;51.762;14.320;2022-10-16T12:49:06;21.90;99.90
7167;DHT22;3625;51.762;14.320;2022-10-16T12:51:50;21.70;99.90
7167;DHT22;3625;51.762;14.320;2022-10-16T12:54:20;21.60;99.90
7167;DHT22;3625;51.762;14.320;2022-10-16T12:57:10;21.60;99.90
7167;DHT22;3625;51.762;14.320;2022-10-16T13:00:01;21.60;99.90
7167;DHT22;3625;51.762;14.320;2022-10-16T13:03:08;21.80;99.90
7167;DHT22;3625;51.762;14.320;2022-10-16T13:06:09;21.90;99.90
7167;DHT22;3625;51.762;14.320;2022-10-16T13:09:05;21.90;99.90
7167;DHT22;3625;51.762;14.320;2022-10-16T13:12:10;20.30;99.90
7167;DHT22;3625;51.762;14.320;2022-10-16T13:15:06;22.00;99.90
7167;DHT22;3625;51.762;14.320;2022-10-16T13:18:02;21.80;99.90
7167;DHT22;3625;51.762;14.320;2022-10-16T13:20:56;21.70;99.90
7167;DHT22;3625;51.762;14.320;2022-10-16T13:23:39;21.60;99.90
7167;DHT22;3625;51.762;14.320;2022-10-16T13:26:24;21.60;99.90
7167;DHT22;3625;51.762;14.320;2022-10-16T13:29:03;21.50;99.90
7167;DHT22;3625;51.762;14.320;2022-10-16T13:36:35;21.60;99.90
7167;DHT22;3625;51.762;14.320;2022-10-16T13:51:57;21.40;99.90
7167;DHT22;3625;51.762;14.320;2022-10-16T13:54:28;21.30;99.90
7167;DHT22;3625;51.762;14.320;2022-10-16T13:57:04;21.20;99.90
7167;DHT22;3625;51.762;14.320;2022-10-16T14:02:26;21.10;99.90
7167;DHT22;3625;51.762;14.320;2022-10-16T14:07:30;20.60;99.90
7167;DHT22;3625;51.762;14.320;2022-10-16T14:10:02;20.40;99.90
7167;DHT22;3625;51.762;14.320;2022-10-16T14:15:04;20.00;99.90
7167;DHT22;3625;51.762;14.320;2022-10-16T14:17:35;19.80;99.90
7167;DHT22;3625;51.762;14.320;2022-10-16T14:20:05;19.80;99.90
7167;DHT22;3625;51.762;14.320;2022-10-16T14:22:42;19.70;99.90
7167;DHT22;3625;51.762;14.320;2022-10-16T14:25:22;19.70;99.90
7167;DHT22;3625;51.762;14.320;2022-10-16T14:28:00;19.90;99.90
7167;DHT22;3625;51.762;14.320;2022-10-16T14:33:04;20.20;99.90
7167;DHT22;3625;51.762;14.320;2022-10-16T14:35:35;20.30;99.90
7167;DHT22;3625;51.762;14.320;2022-10-16T14:40:48;20.50;99.90
7167;DHT22;3625;51.762;14.320;2022-10-16T14:43:21;20.60;99.90
7167;DHT22;3625;51.762;14.320;2022-10-16T14:45:55;20.60;99.90
7167;DHT22;3625;51.762;14.320;2022-10-16T14:53:23;20.30;99.90
7167;DHT22;3625;51.762;14.320;2022-10-16T14:58:23;20.20;99.90
7167;DHT22;3625;51.762;14.320;2022-10-16T15:00:53;20.10;99.90
7167;DHT22;3625;51.762;14.320;2022-10-16T15:13:19;20.00;99.90
7167;DHT22;3625;51.762;14.320;2022-10-16T15:23:19;19.40;99.90
7167;DHT22;3625;51.762;14.320;2022-10-16T15:28:21;19.00;99.90
7167;DHT22;3625;51.762;14.320;2022-10-16T15:30:54;18.80;99.90
7167;DHT22;3625;51.762;14.320;2022-10-16T15:33:26;18.70;99.90
7167;DHT22;3625;51.762;14.320;2022-10-16T15:38:35;18.60;99.90
7167;DHT22;3625;51.762;14.320;2022-10-16T15:41:04;18.50;99.90
7167;DHT22;3625;51.762;14.320;2022-10-16T15:43:32;18.50;99.90
7167;DHT22;3625;51.762;14.320;2022-10-16T15:46:03;18.40;99.90
7167;DHT22;3625;51.762;14.320;2022-10-16T15:51:06;18.20;99.90
7167;DHT22;3625;51.762;14.320;2022-10-16T15:53:35;18.10;99.90
7167;DHT22;3625;51.762;14.320;2022-10-16T15:58:34;17.90;99.90
7167;DHT22;3625;51.762;14.320;2022-10-16T16:11:06;17.40;99.90
7167;DHT22;3625;51.762;14.320;2022-10-16T16:16:08;17.30;99.90
7167;DHT22;3625;51.762;14.320;2022-10-16T16:18:38;17.20;99.90
7167;DHT22;3625;51.762;14.320;2022-10-16T16:21:07;17.10;99.90
7167;DHT22;3625;51.762;14.320;2022-10-16T16:26:07;17.00;99.90
7167;DHT22;3625;51.762;14.320;2022-10-16T16:41:12;17.00;99.90
7167;DHT22;3625;51.762;14.320;2022-10-16T16:46:10;17.00;99.90
7167;DHT22;3625;51.762;14.320;2022-10-16T16:51:12;16.80;99.90
7167;DHT22;3625;51.762;14.320;2022-10-16T17:03:48;16.20;99.90
7167;DHT22;3625;51.762;14.320;2022-10-16T17:06:19;16.20;99.90
7167;DHT22;3625;51.762;14.320;2022-10-16T17:08:50;16.20;99.90
7167;DHT22;3625;51.762;14.320;2022-10-16T17:11:21;16.20;99.90
7167;DHT22;3625;51.762;14.320;2022-10-16T17:13:52;16.20;99.90
7167;DHT22;3625;51.762;14.320;2022-10-16T17:16:24;16.30;99.90
7167;DHT22;3625;51.762;14.320;2022-10-16T17:18:59;16.20;99.90
7167;DHT22;3625;51.762;14.320;2022-10-16T17:21:28;16.20;99.90
7167;DHT22;3625;51.762;14.320;2022-10-16T17:23:58;16.20;99.90
7167;DHT22;3625;51.762;14.320;2022-10-16T17:26:28;16.10;99.90
7167;DHT22;3625;51.762;14.320;2022-10-16T17:28:59;16.00;99.90
7167;DHT22;3625;51.762;14.320;2022-10-16T17:31:30;15.90;99.90
7167;DHT22;3625;51.762;14.320;2022-10-16T17:34:03;15.90;99.90
7167;DHT22;3625;51.762;14.320;2022-10-16T17:36:35;15.90;99.90
7167;DHT22;3625;51.762;14.320;2022-10-16T17:39:06;15.90;99.90
7167;DHT22;3625;51.762;14.320;2022-10-16T17:41:36;15.80;99.90
7167;DHT22;3625;51.762;14.320;2022-10-16T17:44:05;15.80;99.90
7167;DHT22;3625;51.762;14.320;2022-10-16T17:46:35;15.80;99.90
7167;DHT22;3625;51.762;14.320;2022-10-16T17:49:08;15.90;99.90
7167;DHT22;3625;51.762;14.320;2022-10-16T17:59:05;15.80;99.90
7167;DHT22;3625;51.762;14.320;2022-10-16T18:01:35;15.80;99.90
7167;DHT22;3625;51.762;14.320;2022-10-16T18:04:10;15.80;99.90
7167;DHT22;3625;51.762;14.320;2022-10-16T18:06:41;15.80;99.90
7167;DHT22;3625;51.762;14.320;2022-10-16T18:09:13;15.80;99.90
7167;DHT22;3625;51.762;14.320;2022-10-16T18:14:16;15.80;99.90
7167;DHT22;3625;51.762;14.320;2022-10-16T18:16:45;15.80;99.90
7167;DHT22;3625;51.762;14.320;2022-10-16T18:19:15;15.90;99.90
7167;DHT22;3625;51.762;14.320;2022-10-16T18:21:47;15.90;99.90
7167;DHT22;3625;51.762;14.320;2022-10-16T18:26:45;15.90;99.90
7167;DHT22;3625;51.762;14.320;2022-10-16T18:31:44;15.90;99.90
7167;DHT22;3625;51.762;14.320;2022-10-16T18:39:12;16.00;99.90
7167;DHT22;3625;51.762;14.320;2022-10-16T18:54:11;16.20;99.90
7167;DHT22;3625;51.762;14.320;2022-10-16T18:59:09;16.30;99.90
7167;DHT22;3625;51.762;14.320;2022-10-16T19:01:38;16.30;99.90
7167;DHT22;3625;51.762;14.320;2022-10-16T19:04:10;16.40;99.90
7167;DHT22;3625;51.762;14.320;2022-10-16T19:06:42;16.40;99.90
7167;DHT22;3625;51.762;14.320;2022-10-16T19:09:14;16.50;99.90
7167;DHT22;3625;51.762;14.320;2022-10-16T19:14:14;16.50;99.90
7167;DHT22;3625;51.762;14.320;2022-10-16T19:16:43;16.50;99.90
7167;DHT22;3625;51.762;14.320;2022-10-16T19:19:13;16.40;99.90
7167;DHT22;3625;51.762;14.320;2022-10-16T19:21:45;16.40;99.90
7167;DHT22;3625;51.762;14.320;2022-10-16T19:34:11;16.20;99.90
7167;DHT22;3625;51.762;14.320;2022-10-16T19:36:40;16.20;99.90
7167;DHT22;3625;51.762;14.320;2022-10-16T19:39:12;16.00;99.90
7167;DHT22;3625;51.762;14.320;2022-10-16T19:41:43;15.90;99.90
7167;DHT22;3625;51.762;14.320;2022-10-16T19:44:14;15.70;99.90
7167;DHT22;3625;51.762;14.320;2022-10-16T19:49:15;15.50;99.90
7167;DHT22;3625;51.762;14.320;2022-10-16T19:51:48;15.40;99.90
7167;DHT22;3625;51.762;14.320;2022-10-16T20:01:46;15.00;99.90
7167;DHT22;3625;51.762;14.320;2022-10-16T20:26:36;14.50;99.90
7167;DHT22;3625;51.762;14.320;2022-10-16T20:34:05;14.40;99.90
7167;DHT22;3625;51.762;14.320;2022-10-16T20:36:35;14.40;99.90
7167;DHT22;3625;51.762;14.320;2022-10-16T20:39:06;14.40;99.90
7167;DHT22;3625;51.762;14.320;2022-10-16T20:44:04;14.40;99.90
7167;DHT22;3625;51.762;14.320;2022-10-16T20:46:34;14.40;99.90
7167;DHT22;3625;51.762;14.320;2022-10-16T21:09:15;14.40;99.90
7167;DHT22;3625;51.762;14.320;2022-10-16T21:14:12;14.30;99.90
7167;DHT22;3625;51.762;14.320;2022-10-16T21:31:42;14.10;99.90
7167;DHT22;3625;51.762;14.320;2022-10-16T21:36:40;14.30;99.90
7167;DHT22;3625;51.762;14.320;2022-10-16T21:39:11;14.30;99.90
7167;DHT22;3625;51.762;14.320;2022-10-16T21:41:41;14.40;99.90
7167;DHT22;3625;51.762;14.320;2022-10-16T21:44:11;14.40;99.90
7167;DHT22;3625;51.762;14.320;2022-10-16T21:46:43;14.40;99.90
7167;DHT22;3625;51.762;14.320;2022-10-16T21:49:13;14.40;99.90
7167;DHT22;3625;51.762;14.320;2022-10-16T21:51:46;14.30;99.90
7167;DHT22;3625;51.762;14.320;2022-10-16T21:54:17;14.30;99.90
7167;DHT22;3625;51.762;14.320;2022-10-16T21:56:47;14.30;99.90
7167;DHT22;3625;51.762;14.320;2022-10-16T22:06:48;14.40;99.90
7167;DHT22;3625;51.762;14.320;2022-10-16T22:14:16;14.40;99.90
7167;DHT22;3625;51.762;14.320;2022-10-16T22:16:48;14.40;99.90
7167;DHT22;3625;51.762;14.320;2022-10-16T22:19:19;14.40;99.90
7167;DHT22;3625;51.762;14.320;2022-10-16T22:21:49;14.40;99.90
7167;DHT22;3625;51.762;14.320;2022-10-16T22:24:23;14.50;99.90
7167;DHT22;3625;51.762;14.320;2022-10-16T22:39:17;14.30;99.90
7167;DHT22;3625;51.762;14.320;2022-10-16T23:11:37;14.00;99.90
7167;DHT22;3625;51.762;14.320;2022-10-16T23:31:28;13.90;99.90
7167;DHT22;3625;51.762;14.320;2022-10-16T23:56:19;14.10;99.90
